Grand Rapids, MI (49548)

1:16 PM EST on December 19, 2014 (GMT -0500)
Cutlerville | Change Station
CLOSE
Current Station
Personal Weather Station
Location: Grand Rapids, MI
Elevation: 679 ft
Nearby Weather Stations

Elev 679 ft 42.84 °N, 85.66 °W | Updated 8 seconds ago

Clear
Clear
31.6 °F
Feels Like 32 °F
N
2.0
Wind Variable Wind from South
Gusts 4.0 mph

Today
High -- | Low -- °F
--% Chance of Precip.
Yesterday
High -- | Low -- °F
Precip. -- in
8:09 AM 5:10 PM
Waning Crescent, 7% visible
Pressure 30.30 in
Visibility 10.0 miles
Clouds Few 1900 ft
Windchill 32 °F
Dew Point 22 °F
Humidity 68%
Rainfall 0.00 in
Snow Depth Not available.
UV 2 out of 12
Pollen .10 out of 12
Air Quality Not available.
Flu Activity Not available.
METAR KGRR 191753Z 23004KT 10SM FEW019 M02/M07 A3026 RMK AO2 SLP258 T10171072 11011 21033 58005

More Conditions Fewer Conditions

Pressure 30.30 in
Visibility 10.0 miles
Clouds Few 1900 ft
Windchill 32 °F
Dew Point 22 °F
Humidity 68%
Rainfall 0.00 in
Snow Depth Not available.
UV 2 out of 12
Pollen .10 out of 12
Air Quality Not available.
Flu Activity Not available.
METAR KGRR 191753Z 23004KT 10SM FEW019 M02/M07 A3026 RMK AO2 SLP258 T10171072 11011 21033 58005

More Conditions Fewer Conditions

10-Day Weather Forecast

Almanac

Astronomy

Dec. 19, 2014 Rise Set
Actual Time
Civil Twilight
Nautical Twilight
Astronomical Twilight
Moon
Length of Visible Light
Length of Day
Tomorrow will be .
, % of the Moon is Illuminated

Today's Extremes

State Highs State Lows

Community

WunderPhotos

Upload Photos

1,779,015 photos uploaded!

WunderBlogs® & News

Nearby

Air Quality

  Air Quality AQ Index Pollutant
Not available.

Snow Depth

Station Depth Elevation

Earthquake Activity

City Distance Mag. Time & Date
Minimum magnitude displayed is 2.5.

Coastal Water Temperatures

Place Temperature

Nearby Weather Stations